Airfield :
LOGIN :

Register | Disclaimer

   EN    FR    IT 

 










Legend :    VFR   Marginal VFR   IFR   Intensive IFR   Very Intensive IFR
Visi :
Ceiling :
>= 8 km
>= 3000ft
5 to 8 km
1000 to 3000 ft
1500m to 5 km
500 to 1000 ft
800 to 1500m
200 to 500 ft
< 800m
< 200 ft
Symbols :   Thunderstorms  Fog  Heavy snow  Heavy precipitations  Wind > 20 kt
SIGMETs :     Misc.  Thunderstorms  Icing  Turbulence  Mountain Waves  Volcanic Ashes







- Airport Elevation : 2302 ft
- Download approach charts


LEAB - Albacete

CURRENT METAR :
  • 252100Z 18009KT 140V230 CAVOK 23/06 Q1015 NOSIG

EXPIRED METARs :
  • 252041Z 17010KT CAVOK 24/06 Q1015 NOSIG
  • 252000Z 26017KT CAVOK 24/07 Q1014 NOSIG
  • 251900Z 23016KT 190V260 CAVOK 26/06 Q1015 NOSIG

TAF TAF LEAB
Valid from the 25 at 21:00 until the 26 at 06:00 UTC


252000Z 2521/2606 17010KT CAVOK
No reported NOTAMs for that airfield.
5 SIGMETs reported for the Madrid FIR (LECM) :
 
SIGMET 16 cancelation
LECM SIGMET 18 VALID 252120/252200 LEVA
LECM MADRID FIR/UIR CNL SIGMET 16 VALID 252000/252200=
SIGMET 14 cancelation
LECM SIGMET 17 VALID 252029/252200 LEVA
LECM MADRID FIR/UIR CNL SIGMET 14 VALID 252000/252200=
Embedded thunderstorms
LECM SIGMET 16 VALID 252000/252200 LEVA
LECM MADRID FIR/UIR EMBD TS OBS AT 1946Z WI N40 W004 - N3820 W00440 - N3810 W00320 - N40 W003 TOP FL300 STNR NC=
Embedded thunderstorms
LECM SIGMET 15 VALID 252000/252200 LEVA
LECM MADRID FIR/UIR EMBD TS OBS AT 1945Z WI N4320 W00440 - N42 W00450 - N4150 W00240 - N4320 W00230 TOP FL300 STNR NC=
SIGMET 14  CANCELED :
Embedded thunderstorms
LECM SIGMET 14 VALID 252000/252200 LEVA
LECM MADRID FIR/UIR EMBD TS OBS AT 1943Z N OF LINE N4350 W01010 - N4350 W00820 TOP FL300 STNR WKN=



MET'MAP, your aeronautical weather chart ! - Copyright ORBIFLY December 2007 - Disclaimer

ORBIFLY MET'MAP TEAM :

Programming & Development : Alexandra Zaïnal
Concept & Development : Baudouin d'Aumeries
Co-Development & Prog : Marc-Olivier Méhu
Technical & hardware support : Manuel Goepfert

Contact : metmap@orbifly.com




SOURCES & CREDITS :

   NOAA